sensor_id;sensor_type;location;lat;lon;timestamp;pressure;altitude;pressure_sealevel;temperature;humidity
21742;BME280;11033;47.490;11.116;2023-04-06T00:00:36;93298.44;;;-0.13;66.77
21742;BME280;11033;47.490;11.116;2023-04-06T00:03:01;93293.25;;;-0.13;67.08
21742;BME280;11033;47.490;11.116;2023-04-06T00:05:27;93295.97;;;-0.14;67.42
21742;BME280;11033;47.490;11.116;2023-04-06T00:07:55;93304.34;;;-0.22;68.10
21742;BME280;11033;47.490;11.116;2023-04-06T00:10:21;93299.16;;;-0.22;68.62
21742;BME280;11033;47.490;11.116;2023-04-06T00:12:46;93298.09;;;-0.19;68.73
21742;BME280;11033;47.490;11.116;2023-04-06T00:15:11;93289.88;;;-0.24;68.42
21742;BME280;11033;47.490;11.116;2023-04-06T00:17:36;93289.81;;;-0.34;69.49
21742;BME280;11033;47.490;11.116;2023-04-06T00:20:02;93296.38;;;-0.30;68.93
21742;BME280;11033;47.490;11.116;2023-04-06T00:22:28;93295.31;;;-0.27;67.96
21742;BME280;11033;47.490;11.116;2023-04-06T00:24:53;93293.53;;;-0.27;67.47
21742;BME280;11033;47.490;11.116;2023-04-06T00:27:18;93297.56;;;-0.34;69.18
21742;BME280;11033;47.490;11.116;2023-04-06T00:29:44;93292.16;;;-0.31;67.82
21742;BME280;11033;47.490;11.116;2023-04-06T00:32:09;93293.31;;;-0.35;67.99
21742;BME280;11033;47.490;11.116;2023-04-06T00:34:35;93288.84;;;-0.33;67.11
21742;BME280;11033;47.490;11.116;2023-04-06T00:37:00;93291.09;;;-0.40;68.43
21742;BME280;11033;47.490;11.116;2023-04-06T00:39:25;93287.69;;;-0.40;67.81
21742;BME280;11033;47.490;11.116;2023-04-06T00:41:51;93281.81;;;-0.42;68.40
21742;BME280;11033;47.490;11.116;2023-04-06T00:44:18;93282.88;;;-0.45;67.06
21742;BME280;11033;47.490;11.116;2023-04-06T00:46:44;93277.13;;;-0.48;67.43
21742;BME280;11033;47.490;11.116;2023-04-06T00:49:10;93280.41;;;-0.46;68.24
21742;BME280;11033;47.490;11.116;2023-04-06T00:51:35;93277.97;;;-0.59;69.47
21742;BME280;11033;47.490;11.116;2023-04-06T00:54:00;93284.69;;;-0.56;70.75
21742;BME280;11033;47.490;11.116;2023-04-06T00:56:26;93285.38;;;-0.54;69.29
21742;BME280;11033;47.490;11.116;2023-04-06T00:58:51;93281.72;;;-0.52;68.58
21742;BME280;11033;47.490;11.116;2023-04-06T01:01:17;93284.69;;;-0.56;69.88
21742;BME280;11033;47.490;11.116;2023-04-06T01:03:42;93286.31;;;-0.55;69.34
21742;BME280;11033;47.490;11.116;2023-04-06T01:06:09;93285.38;;;-0.66;71.79
21742;BME280;11033;47.490;11.116;2023-04-06T01:08:35;93279.75;;;-0.59;70.93
21742;BME280;11033;47.490;11.116;2023-04-06T01:11:01;93289.50;;;-0.63;71.78
21742;BME280;11033;47.490;11.116;2023-04-06T01:13:26;93285.63;;;-0.57;70.86
21742;BME280;11033;47.490;11.116;2023-04-06T01:15:52;93283.63;;;-0.54;70.21
21742;BME280;11033;47.490;11.116;2023-04-06T01:18:17;93283.03;;;-0.57;70.44
21742;BME280;11033;47.490;11.116;2023-04-06T01:20:43;93282.06;;;-0.45;68.24
21742;BME280;11033;47.490;11.116;2023-04-06T01:23:08;93283.94;;;-0.47;69.90
21742;BME280;11033;47.490;11.116;2023-04-06T01:25:33;93282.09;;;-0.56;71.36
21742;BME280;11033;47.490;11.116;2023-04-06T01:27:59;93279.25;;;-0.53;68.98
21742;BME280;11033;47.490;11.116;2023-04-06T01:30:24;93281.16;;;-0.55;69.24
21742;BME280;11033;47.490;11.116;2023-04-06T01:32:49;93281.97;;;-0.55;68.41
21742;BME280;11033;47.490;11.116;2023-04-06T01:35:15;93284.78;;;-0.47;69.22
21742;BME280;11033;47.490;11.116;2023-04-06T01:37:41;93273.59;;;-0.47;68.33
21742;BME280;11033;47.490;11.116;2023-04-06T01:40:07;93273.47;;;-0.46;68.74
21742;BME280;11033;47.490;11.116;2023-04-06T01:42:32;93277.38;;;-0.51;69.99
21742;BME280;11033;47.490;11.116;2023-04-06T01:44:57;93274.09;;;-0.53;69.92
21742;BME280;11033;47.490;11.116;2023-04-06T01:47:22;93273.84;;;-0.50;70.67
21742;BME280;11033;47.490;11.116;2023-04-06T01:49:48;93270.81;;;-0.55;71.98
21742;BME280;11033;47.490;11.116;2023-04-06T01:52:13;93276.66;;;-0.42;71.32
21742;BME280;11033;47.490;11.116;2023-04-06T01:54:39;93273.94;;;-0.41;70.17
21742;BME280;11033;47.490;11.116;2023-04-06T01:57:04;93278.63;;;-0.35;68.45
21742;BME280;11033;47.490;11.116;2023-04-06T01:59:30;93272.38;;;-0.32;68.67
21742;BME280;11033;47.490;11.116;2023-04-06T02:01:55;93272.75;;;-0.37;69.54
21742;BME280;11033;47.490;11.116;2023-04-06T02:04:20;93277.81;;;-0.35;69.93
21742;BME280;11033;47.490;11.116;2023-04-06T02:06:46;93268.28;;;-0.35;70.49
21742;BME280;11033;47.490;11.116;2023-04-06T02:09:11;93265.31;;;-0.30;68.94
21742;BME280;11033;47.490;11.116;2023-04-06T02:11:36;93269.09;;;-0.34;69.34
21742;BME280;11033;47.490;11.116;2023-04-06T02:14:02;93269.34;;;-0.37;70.23
21742;BME280;11033;47.490;11.116;2023-04-06T02:16:27;93272.31;;;-0.42;71.41
21742;BME280;11033;47.490;11.116;2023-04-06T02:18:52;93266.31;;;-0.42;70.83
21742;BME280;11033;47.490;11.116;2023-04-06T02:21:17;93271.22;;;-0.39;70.42
21742;BME280;11033;47.490;11.116;2023-04-06T02:23:48;93267.69;;;-0.38;69.83
21742;BME280;11033;47.490;11.116;2023-04-06T02:26:14;93264.78;;;-0.45;70.73
21742;BME280;11033;47.490;11.116;2023-04-06T02:28:40;93262.31;;;-0.46;71.21
21742;BME280;11033;47.490;11.116;2023-04-06T02:31:05;93265.59;;;-0.44;71.23
21742;BME280;11033;47.490;11.116;2023-04-06T02:33:30;93263.38;;;-0.49;70.32
21742;BME280;11033;47.490;11.116;2023-04-06T02:35:55;93260.22;;;-0.52;70.20
21742;BME280;11033;47.490;11.116;2023-04-06T02:38:21;93265.16;;;-0.49;70.78
21742;BME280;11033;47.490;11.116;2023-04-06T02:40:46;93266.56;;;-0.56;72.39
21742;BME280;11033;47.490;11.116;2023-04-06T02:43:11;93271.72;;;-0.45;71.14
21742;BME280;11033;47.490;11.116;2023-04-06T02:45:36;93263.25;;;-0.47;70.57
21742;BME280;11033;47.490;11.116;2023-04-06T02:48:02;93263.50;;;-0.50;70.69
21742;BME280;11033;47.490;11.116;2023-04-06T02:50:27;93254.09;;;-0.51;69.82
21742;BME280;11033;47.490;11.116;2023-04-06T02:52:52;93251.28;;;-0.48;71.12
21742;BME280;11033;47.490;11.116;2023-04-06T02:55:18;93261.03;;;-0.52;72.25
21742;BME280;11033;47.490;11.116;2023-04-06T02:57:44;93257.56;;;-0.30;70.13
21742;BME280;11033;47.490;11.116;2023-04-06T03:00:11;93251.03;;;-0.45;70.90
21742;BME280;11033;47.490;11.116;2023-04-06T03:02:36;93253.63;;;-0.45;72.19
21742;BME280;11033;47.490;11.116;2023-04-06T03:05:02;93251.72;;;-0.43;71.95
21742;BME280;11033;47.490;11.116;2023-04-06T03:07:28;93250.78;;;-0.42;71.80
21742;BME280;11033;47.490;11.116;2023-04-06T03:09:53;93248.69;;;-0.48;72.34
21742;BME280;11033;47.490;11.116;2023-04-06T03:12:19;93247.72;;;-0.36;71.22
21742;BME280;11033;47.490;11.116;2023-04-06T03:14:44;93246.44;;;-0.42;72.60
21742;BME280;11033;47.490;11.116;2023-04-06T03:17:09;93255.72;;;-0.39;71.64
21742;BME280;11033;47.490;11.116;2023-04-06T03:19:35;93255.22;;;-0.33;70.40
21742;BME280;11033;47.490;11.116;2023-04-06T03:22:00;93252.47;;;-0.52;70.75
21742;BME280;11033;47.490;11.116;2023-04-06T03:24:25;93248.16;;;-0.31;70.32
21742;BME280;11033;47.490;11.116;2023-04-06T03:26:50;93249.88;;;-0.20;69.91
21742;BME280;11033;47.490;11.116;2023-04-06T03:29:16;93248.47;;;-0.24;70.97
21742;BME280;11033;47.490;11.116;2023-04-06T03:31:41;93251.66;;;-0.21;69.33
21742;BME280;11033;47.490;11.116;2023-04-06T03:34:06;93258.84;;;-0.24;70.31
21742;BME280;11033;47.490;11.116;2023-04-06T03:36:33;93251.44;;;-0.29;70.32
21742;BME280;11033;47.490;11.116;2023-04-06T03:38:58;93255.56;;;-0.26;69.60
21742;BME280;11033;47.490;11.116;2023-04-06T03:41:24;93261.88;;;-0.19;71.51
21742;BME280;11033;47.490;11.116;2023-04-06T03:43:49;93257.66;;;-0.20;71.49
21742;BME280;11033;47.490;11.116;2023-04-06T03:46:15;93260.34;;;-0.22;71.65
21742;BME280;11033;47.490;11.116;2023-04-06T03:48:40;93250.69;;;-0.20;71.33
21742;BME280;11033;47.490;11.116;2023-04-06T03:51:05;93255.13;;;-0.11;70.73
21742;BME280;11033;47.490;11.116;2023-04-06T03:53:31;93257.66;;;-0.20;71.33
21742;BME280;11033;47.490;11.116;2023-04-06T03:55:56;93257.03;;;-0.13;71.67
21742;BME280;11033;47.490;11.116;2023-04-06T03:58:21;93266.44;;;-0.12;71.20
21742;BME280;11033;47.490;11.116;2023-04-06T04:00:46;93270.22;;;-0.16;71.27
21742;BME280;11033;47.490;11.116;2023-04-06T04:03:12;93275.59;;;-0.08;69.79
21742;BME280;11033;47.490;11.116;2023-04-06T04:05:37;93265.94;;;-0.06;70.04
21742;BME280;11033;47.490;11.116;2023-04-06T04:08:02;93257.91;;;0.09;68.78
21742;BME280;11033;47.490;11.116;2023-04-06T04:10:28;93255.88;;;0.12;68.36
21742;BME280;11033;47.490;11.116;2023-04-06T04:12:53;93266.56;;;0.19;68.78
21742;BME280;11033;47.490;11.116;2023-04-06T04:15:18;93265.41;;;0.12;69.82
21742;BME280;11033;47.490;11.116;2023-04-06T04:17:43;93263.31;;;0.06;70.62
21742;BME280;11033;47.490;11.116;2023-04-06T04:20:12;93251.53;;;0.13;69.97
21742;BME280;11033;47.490;11.116;2023-04-06T04:22:37;93254.50;;;0.08;71.08
21742;BME280;11033;47.490;11.116;2023-04-06T04:25:02;93259.28;;;0.13;70.19
21742;BME280;11033;47.490;11.116;2023-04-06T04:27:27;93257.59;;;0.23;68.65
21742;BME280;11033;47.490;11.116;2023-04-06T04:29:53;93261.94;;;0.22;69.34
21742;BME280;11033;47.490;11.116;2023-04-06T04:32:18;93273.19;;;0.12;69.18
21742;BME280;11033;47.490;11.116;2023-04-06T04:34:43;93273.38;;;0.20;69.02
21742;BME280;11033;47.490;11.116;2023-04-06T04:37:08;93266.56;;;0.19;68.15
21742;BME280;11033;47.490;11.116;2023-04-06T04:39:34;93262.81;;;0.12;70.60
21742;BME280;11033;47.490;11.116;2023-04-06T04:41:59;93265.16;;;0.15;69.34
21742;BME280;11033;47.490;11.116;2023-04-06T04:44:25;93277.16;;;0.16;70.47
21742;BME280;11033;47.490;11.116;2023-04-06T04:46:50;93265.63;;;0.20;70.35
21742;BME280;11033;47.490;11.116;2023-04-06T04:49:15;93264.41;;;0.24;69.52
21742;BME280;11033;47.490;11.116;2023-04-06T04:51:41;93261.38;;;0.19;69.57
21742;BME280;11033;47.490;11.116;2023-04-06T04:54:06;93263.59;;;0.23;69.08
21742;BME280;11033;47.490;11.116;2023-04-06T04:56:31;93258.97;;;0.27;69.55
21742;BME280;11033;47.490;11.116;2023-04-06T04:58:56;93273.69;;;0.26;70.16
21742;BME280;11033;47.490;11.116;2023-04-06T05:01:22;93272.13;;;0.35;68.91
21742;BME280;11033;47.490;11.116;2023-04-06T05:03:47;93275.66;;;0.34;68.99
21742;BME280;11033;47.490;11.116;2023-04-06T05:06:12;93271.44;;;0.33;68.18
21742;BME280;11033;47.490;11.116;2023-04-06T05:08:37;93270.03;;;0.29;69.38
21742;BME280;11033;47.490;11.116;2023-04-06T05:11:03;93273.25;;;0.42;68.33
21742;BME280;11033;47.490;11.116;2023-04-06T05:13:30;93277.06;;;0.38;69.64
21742;BME280;11033;47.490;11.116;2023-04-06T05:15:55;93277.69;;;0.30;70.59
21742;BME280;11033;47.490;11.116;2023-04-06T05:18:21;93273.25;;;0.42;69.21
21742;BME280;11033;47.490;11.116;2023-04-06T05:20:46;93274.97;;;0.53;69.20
21742;BME280;11033;47.490;11.116;2023-04-06T05:23:12;93277.13;;;0.48;68.88
21742;BME280;11033;47.490;11.116;2023-04-06T05:25:37;93273.97;;;0.44;69.56
21742;BME280;11033;47.490;11.116;2023-04-06T05:28:03;93284.50;;;0.52;68.86
21742;BME280;11033;47.490;11.116;2023-04-06T05:30:28;93287.53;;;0.57;69.10
21742;BME280;11033;47.490;11.116;2023-04-06T05:32:54;93293.34;;;0.50;69.19
21742;BME280;11033;47.490;11.116;2023-04-06T05:35:19;93285.91;;;0.56;68.75
21742;BME280;11033;47.490;11.116;2023-04-06T05:37:45;93294.47;;;0.57;68.91
21742;BME280;11033;47.490;11.116;2023-04-06T05:40:10;93291.63;;;0.60;67.65
21742;BME280;11033;47.490;11.116;2023-04-06T05:42:40;93288.91;;;0.61;68.61
21742;BME280;11033;47.490;11.116;2023-04-06T05:45:08;93294.56;;;0.67;68.24
21742;BME280;11033;47.490;11.116;2023-04-06T05:47:33;93279.22;;;0.75;67.32
21742;BME280;11033;47.490;11.116;2023-04-06T05:49:59;93284.09;;;0.68;68.84
21742;BME280;11033;47.490;11.116;2023-04-06T05:52:24;93285.84;;;0.68;69.54
21742;BME280;11033;47.490;11.116;2023-04-06T05:54:50;93280.06;;;0.85;67.33
21742;BME280;11033;47.490;11.116;2023-04-06T05:57:15;93285.25;;;0.85;68.48
21742;BME280;11033;47.490;11.116;2023-04-06T05:59:42;93285.25;;;0.85;68.84
21742;BME280;11033;47.490;11.116;2023-04-06T06:02:07;93276.44;;;0.97;67.98
21742;BME280;11033;47.490;11.116;2023-04-06T06:04:32;93280.47;;;1.11;67.64
21742;BME280;11033;47.490;11.116;2023-04-06T06:06:57;93290.00;;;1.10;68.10
21742;BME280;11033;47.490;11.116;2023-04-06T06:09:23;93289.75;;;1.13;67.41
21742;BME280;11033;47.490;11.116;2023-04-06T06:11:49;93294.13;;;1.13;67.37
21742;BME280;11033;47.490;11.116;2023-04-06T06:14:14;93290.28;;;1.07;67.77
21742;BME280;11033;47.490;11.116;2023-04-06T06:16:40;93285.94;;;1.17;67.66
21742;BME280;11033;47.490;11.116;2023-04-06T06:19:05;93284.59;;;1.23;66.41
21742;BME280;11033;47.490;11.116;2023-04-06T06:21:31;93293.59;;;1.19;66.36
21742;BME280;11033;47.490;11.116;2023-04-06T06:23:56;93294.41;;;1.19;66.47
21742;BME280;11033;47.490;11.116;2023-04-06T06:26:22;93289.84;;;1.33;66.67
21742;BME280;11033;47.490;11.116;2023-04-06T06:28:47;93287.31;;;1.21;67.05
21742;BME280;11033;47.490;11.116;2023-04-06T06:31:12;93290.94;;;1.30;65.29
21742;BME280;11033;47.490;11.116;2023-04-06T06:33:37;93288.53;;;1.48;65.55
21742;BME280;11033;47.490;11.116;2023-04-06T06:36:03;93283.34;;;1.48;64.83
21742;BME280;11033;47.490;11.116;2023-04-06T06:38:28;93286.50;;;1.51;65.78
21742;BME280;11033;47.490;11.116;2023-04-06T06:40:53;93277.78;;;1.62;65.20
21742;BME280;11033;47.490;11.116;2023-04-06T06:43:19;93285.84;;;1.69;65.73
21742;BME280;11033;47.490;11.116;2023-04-06T06:45:44;93279.03;;;1.77;65.64
21742;BME280;11033;47.490;11.116;2023-04-06T06:48:09;93278.63;;;1.82;66.74
21742;BME280;11033;47.490;11.116;2023-04-06T06:50:35;93284.53;;;1.94;65.63
21742;BME280;11033;47.490;11.116;2023-04-06T06:53:01;93276.59;;;1.85;64.89
21742;BME280;11033;47.490;11.116;2023-04-06T06:55:26;93273.19;;;1.95;65.10
21742;BME280;11033;47.490;11.116;2023-04-06T06:57:52;93272.94;;;2.07;64.12
21742;BME280;11033;47.490;11.116;2023-04-06T07:00:18;93280.72;;;2.17;64.37
21742;BME280;11033;47.490;11.116;2023-04-06T07:02:45;93281.00;;;2.33;64.08
21742;BME280;11033;47.490;11.116;2023-04-06T07:05:10;93279.91;;;2.45;63.53
21742;BME280;11033;47.490;11.116;2023-04-06T07:07:35;93288.38;;;2.57;63.45
21742;BME280;11033;47.490;11.116;2023-04-06T07:10:01;93283.19;;;2.67;62.46
21742;BME280;11033;47.490;11.116;2023-04-06T07:12:26;93279.63;;;2.68;61.32
21742;BME280;11033;47.490;11.116;2023-04-06T07:14:52;93272.78;;;2.67;61.72
21742;BME280;11033;47.490;11.116;2023-04-06T07:17:17;93281.09;;;2.80;62.51
21742;BME280;11033;47.490;11.116;2023-04-06T07:19:43;93274.38;;;2.87;61.84
21742;BME280;11033;47.490;11.116;2023-04-06T07:22:08;93280.09;;;3.00;62.25
21742;BME280;11033;47.490;11.116;2023-04-06T07:24:33;93276.50;;;3.11;61.54
21742;BME280;11033;47.490;11.116;2023-04-06T07:26:59;93286.88;;;3.21;62.16
21742;BME280;11033;47.490;11.116;2023-04-06T07:29:27;93275.91;;;3.27;62.03
21742;BME280;11033;47.490;11.116;2023-04-06T07:31:53;93276.69;;;3.37;61.86
21742;BME280;11033;47.490;11.116;2023-04-06T07:34:18;93277.19;;;3.50;60.96
21742;BME280;11033;47.490;11.116;2023-04-06T07:36:44;93278.25;;;3.57;60.69
21742;BME280;11033;47.490;11.116;2023-04-06T07:39:09;93286.16;;;3.65;60.12
21742;BME280;11033;47.490;11.116;2023-04-06T07:41:35;93283.63;;;3.73;60.60
21742;BME280;11033;47.490;11.116;2023-04-06T07:44:01;93285.34;;;3.82;60.15
21742;BME280;11033;47.490;11.116;2023-04-06T07:46:26;93288.34;;;3.88;60.39
21742;BME280;11033;47.490;11.116;2023-04-06T07:48:51;93281.63;;;3.95;59.87
21742;BME280;11033;47.490;11.116;2023-04-06T07:51:16;93281.31;;;3.98;57.75
21742;BME280;11033;47.490;11.116;2023-04-06T07:53:43;93282.44;;;4.13;58.47
21742;BME280;11033;47.490;11.116;2023-04-06T07:56:09;93281.03;;;4.19;58.09
21742;BME280;11033;47.490;11.116;2023-04-06T07:58:34;93285.78;;;4.23;57.34
21742;BME280;11033;47.490;11.116;2023-04-06T08:01:01;93276.13;;;4.33;58.44
21742;BME280;11033;47.490;11.116;2023-04-06T08:03:26;93279.69;;;4.32;56.46
21742;BME280;11033;47.490;11.116;2023-04-06T08:05:52;93267.47;;;4.51;57.16
21742;BME280;11033;47.490;11.116;2023-04-06T08:08:18;93277.00;;;4.60;57.76
21742;BME280;11033;47.490;11.116;2023-04-06T08:10:43;93270.88;;;4.69;57.37
21742;BME280;11033;47.490;11.116;2023-04-06T08:13:08;93264.44;;;4.81;55.78
21742;BME280;11033;47.490;11.116;2023-04-06T08:15:34;93256.69;;;4.89;54.63
21742;BME280;11033;47.490;11.116;2023-04-06T08:17:59;93259.03;;;5.00;53.57
21742;BME280;11033;47.490;11.116;2023-04-06T08:20:24;93263.03;;;5.13;55.43
21742;BME280;11033;47.490;11.116;2023-04-06T08:22:50;93253.97;;;5.25;54.18
21742;BME280;11033;47.490;11.116;2023-04-06T08:25:15;93249.41;;;5.27;49.91
21742;BME280;11033;47.490;11.116;2023-04-06T08:27:40;93248.00;;;5.40;52.94
21742;BME280;11033;47.490;11.116;2023-04-06T08:30:06;93246.44;;;5.56;53.08
21742;BME280;11033;47.490;11.116;2023-04-06T08:32:31;93241.75;;;5.67;54.31
21742;BME280;11033;47.490;11.116;2023-04-06T08:34:56;93232.28;;;5.74;51.36
21742;BME280;11033;47.490;11.116;2023-04-06T08:37:22;93237.88;;;5.80;48.36
21742;BME280;11033;47.490;11.116;2023-04-06T08:39:47;93240.25;;;5.91;50.29
21742;BME280;11033;47.490;11.116;2023-04-06T08:42:25;93238.81;;;6.04;52.25
21742;BME280;11033;47.490;11.116;2023-04-06T08:44:51;93240.59;;;6.12;51.18
21742;BME280;11033;47.490;11.116;2023-04-06T08:47:18;93241.44;;;6.29;50.43
21742;BME280;11033;47.490;11.116;2023-04-06T08:49:44;93237.34;;;6.26;47.54
21742;BME280;11033;47.490;11.116;2023-04-06T08:52:10;93240.97;;;6.42;48.16
21742;BME280;11033;47.490;11.116;2023-04-06T08:54:36;93234.28;;;6.55;49.30
21742;BME280;11033;47.490;11.116;2023-04-06T08:57:02;93236.09;;;6.55;47.81
21742;BME280;11033;47.490;11.116;2023-04-06T08:59:28;93235.44;;;6.77;47.71
21742;BME280;11033;47.490;11.116;2023-04-06T09:01:54;93236.56;;;6.75;45.00
21742;BME280;11033;47.490;11.116;2023-04-06T09:04:20;93228.22;;;6.95;46.72
21742;BME280;11033;47.490;11.116;2023-04-06T09:06:45;93229.19;;;7.03;45.41
21742;BME280;11033;47.490;11.116;2023-04-06T09:09:11;93216.72;;;7.21;42.00
21742;BME280;11033;47.490;11.116;2023-04-06T09:11:50;93217.34;;;7.31;40.67
21742;BME280;11033;47.490;11.116;2023-04-06T09:14:16;93223.19;;;7.49;45.46
21742;BME280;11033;47.490;11.116;2023-04-06T09:16:43;93222.19;;;7.50;42.07
21742;BME280;11033;47.490;11.116;2023-04-06T09:19:10;93224.09;;;7.64;44.20
21742;BME280;11033;47.490;11.116;2023-04-06T09:21:36;93223.88;;;7.74;44.88
21742;BME280;11033;47.490;11.116;2023-04-06T09:24:02;93222.06;;;7.83;44.46
21742;BME280;11033;47.490;11.116;2023-04-06T09:26:28;93228.75;;;7.93;43.20
21742;BME280;11033;47.490;11.116;2023-04-06T09:28:56;93222.94;;;8.06;41.89
21742;BME280;11033;47.490;11.116;2023-04-06T09:31:23;93220.59;;;8.11;43.32
21742;BME280;11033;47.490;11.116;2023-04-06T09:33:49;93223.19;;;8.19;44.13
21742;BME280;11033;47.490;11.116;2023-04-06T09:36:14;93211.91;;;8.42;43.62
21742;BME280;11033;47.490;11.116;2023-04-06T09:38:53;93208.19;;;8.59;42.81
21742;BME280;11033;47.490;11.116;2023-04-06T09:41:29;93209.19;;;8.58;41.17
21742;BME280;11033;47.490;11.116;2023-04-06T09:44:11;93210.28;;;8.64;41.21
21742;BME280;11033;47.490;11.116;2023-04-06T09:46:47;93206.78;;;8.71;38.99
21742;BME280;11033;47.490;11.116;2023-04-06T09:49:13;93199.34;;;9.12;39.90
21742;BME280;11033;47.490;11.116;2023-04-06T09:51:53;93193.91;;;9.29;40.04
21742;BME280;11033;47.490;11.116;2023-04-06T09:54:21;93194.91;;;9.42;40.51
21742;BME280;11033;47.490;11.116;2023-04-06T09:56:51;93192.34;;;9.64;39.89
21742;BME280;11033;47.490;11.116;2023-04-06T10:00:04;93183.13;;;9.53;37.57
21742;BME280;11033;47.490;11.116;2023-04-06T10:03:33;93194.72;;;9.88;37.91
21742;BME280;11033;47.490;11.116;2023-04-06T10:08:11;93183.00;;;10.27;38.18
21742;BME280;11033;47.490;11.116;2023-04-06T10:10:37;93179.78;;;10.67;39.64
21742;BME280;11033;47.490;11.116;2023-04-06T10:13:07;93183.53;;;10.79;38.32
21742;BME280;11033;47.490;11.116;2023-04-06T10:15:33;93170.06;;;10.96;38.01
21742;BME280;11033;47.490;11.116;2023-04-06T10:17:59;93176.94;;;11.18;38.34
21742;BME280;11033;47.490;11.116;2023-04-06T10:20:33;93176.25;;;11.37;36.82
21742;BME280;11033;47.490;11.116;2023-04-06T10:23:33;93179.81;;;11.23;35.35
21742;BME280;11033;47.490;11.116;2023-04-06T10:26:01;93171.19;;;11.70;37.13
21742;BME280;11033;47.490;11.116;2023-04-06T10:28:35;93171.69;;;11.87;37.24
21742;BME280;11033;47.490;11.116;2023-04-06T10:31:05;93161.16;;;12.00;35.66
21742;BME280;11033;47.490;11.116;2023-04-06T10:33:31;93163.13;;;11.79;33.23
21742;BME280;11033;47.490;11.116;2023-04-06T10:35:57;93171.66;;;11.81;34.50
21742;BME280;11033;47.490;11.116;2023-04-06T10:38:36;93165.81;;;11.92;34.14
21742;BME280;11033;47.490;11.116;2023-04-06T10:41:08;93168.34;;;12.20;34.45
21742;BME280;11033;47.490;11.116;2023-04-06T10:43:35;93161.75;;;12.77;35.61
21742;BME280;11033;47.490;11.116;2023-04-06T10:46:02;93170.50;;;13.10;35.22
21742;BME280;11033;47.490;11.116;2023-04-06T10:51:07;93156.47;;;13.29;33.26
21742;BME280;11033;47.490;11.116;2023-04-06T10:53:33;93153.59;;;12.98;31.66
21742;BME280;11033;47.490;11.116;2023-04-06T10:55:59;93158.47;;;12.94;32.30
21742;BME280;11033;47.490;11.116;2023-04-06T10:58:26;93155.63;;;13.49;32.61
21742;BME280;11033;47.490;11.116;2023-04-06T11:00:52;93155.16;;;13.65;31.15
21742;BME280;11033;47.490;11.116;2023-04-06T11:03:18;93152.22;;;14.00;34.56
21742;BME280;11033;47.490;11.116;2023-04-06T11:05:49;93154.34;;;13.78;33.52
21742;BME280;11033;47.490;11.116;2023-04-06T11:08:29;93150.16;;;13.30;32.82
21742;BME280;11033;47.490;11.116;2023-04-06T11:11:09;93140.53;;;13.56;32.24
21742;BME280;11033;47.490;11.116;2023-04-06T11:13:41;93152.63;;;13.96;32.77
21742;BME280;11033;47.490;11.116;2023-04-06T11:16:12;93151.00;;;14.02;32.24
21742;BME280;11033;47.490;11.116;2023-04-06T11:18:37;93152.22;;;13.28;30.18
21742;BME280;11033;47.490;11.116;2023-04-06T11:21:02;93149.38;;;13.94;30.89
21742;BME280;11033;47.490;11.116;2023-04-06T11:23:28;93145.91;;;14.45;34.25
21742;BME280;11033;47.490;11.116;2023-04-06T11:25:53;93137.16;;;13.93;30.72
21742;BME280;11033;47.490;11.116;2023-04-06T11:28:19;93131.84;;;14.45;31.23
21742;BME280;11033;47.490;11.116;2023-04-06T11:30:45;93124.25;;;14.80;31.44
21742;BME280;11033;47.490;11.116;2023-04-06T11:33:10;93121.41;;;14.81;31.73
21742;BME280;11033;47.490;11.116;2023-04-06T11:35:37;93127.25;;;14.90;30.57
21742;BME280;11033;47.490;11.116;2023-04-06T11:38:03;93133.72;;;15.44;31.72
21742;BME280;11033;47.490;11.116;2023-04-06T11:40:29;93128.56;;;15.74;32.38
21742;BME280;11033;47.490;11.116;2023-04-06T11:42:55;93123.03;;;15.75;31.29
21742;BME280;11033;47.490;11.116;2023-04-06T11:45:21;93109.44;;;15.65;31.01
21742;BME280;11033;47.490;11.116;2023-04-06T11:47:59;93106.03;;;16.43;32.75
21742;BME280;11033;47.490;11.116;2023-04-06T11:50:25;93106.16;;;16.00;29.94
21742;BME280;11033;47.490;11.116;2023-04-06T11:53:00;93102.66;;;16.36;29.72
21742;BME280;11033;47.490;11.116;2023-04-06T11:55:26;93110.25;;;16.92;29.11
21742;BME280;11033;47.490;11.116;2023-04-06T11:57:51;93107.13;;;17.54;30.65
21742;BME280;11033;47.490;11.116;2023-04-06T12:00:17;93105.38;;;17.01;28.66
21742;BME280;11033;47.490;11.116;2023-04-06T12:02:46;93103.53;;;17.95;28.74
21742;BME280;11033;47.490;11.116;2023-04-06T12:05:11;93100.31;;;17.46;27.82
21742;BME280;11033;47.490;11.116;2023-04-06T12:07:37;93098.19;;;17.95;28.73
21742;BME280;11033;47.490;11.116;2023-04-06T12:10:03;93085.75;;;18.41;28.34
21742;BME280;11033;47.490;11.116;2023-04-06T12:12:29;93087.44;;;18.18;26.21
21742;BME280;11033;47.490;11.116;2023-04-06T12:14:55;93090.41;;;18.90;26.60
21742;BME280;11033;47.490;11.116;2023-04-06T12:17:20;93088.16;;;18.99;28.83
21742;BME280;11033;47.490;11.116;2023-04-06T12:19:46;93090.59;;;17.17;25.65
21742;BME280;11033;47.490;11.116;2023-04-06T12:22:12;93078.78;;;17.59;27.53
21742;BME280;11033;47.490;11.116;2023-04-06T12:24:37;93086.47;;;17.96;25.44
21742;BME280;11033;47.490;11.116;2023-04-06T12:27:02;93080.31;;;18.07;24.97
21742;BME280;11033;47.490;11.116;2023-04-06T12:29:28;93080.63;;;17.12;25.60
21742;BME280;11033;47.490;11.116;2023-04-06T12:31:53;93076.63;;;18.65;28.60
21742;BME280;11033;47.490;11.116;2023-04-06T12:34:18;93072.41;;;18.12;25.29
21742;BME280;11033;47.490;11.116;2023-04-06T12:36:44;93069.84;;;18.17;26.08
21742;BME280;11033;47.490;11.116;2023-04-06T12:39:09;93069.84;;;18.46;28.18
21742;BME280;11033;47.490;11.116;2023-04-06T12:41:34;93060.84;;;18.80;26.15
21742;BME280;11033;47.490;11.116;2023-04-06T12:44:00;93066.59;;;18.15;27.32
21742;BME280;11033;47.490;11.116;2023-04-06T12:46:25;93067.47;;;16.64;25.36
21742;BME280;11033;47.490;11.116;2023-04-06T12:48:51;93070.13;;;18.32;25.32
21742;BME280;11033;47.490;11.116;2023-04-06T12:51:18;93072.63;;;18.11;25.00
21742;BME280;11033;47.490;11.116;2023-04-06T12:53:44;93058.19;;;18.80;26.34
21742;BME280;11033;47.490;11.116;2023-04-06T12:56:17;93065.22;;;19.37;27.49